Time;durP1;ratioP1;P1;durP2;ratioP2;P2;SDS_P1;SDS_P2;PMS_P1;PMS_P2;Temp;Humidity;BMP_temperature;BMP_pressure;BME280_temperature;BME280_humidity;BME280_pressure;Samples;Min_cycle;Max_cycle;Signal;HPM_P1;HPM_P2
2021/08/26 00:07:24;;;;;;;23.17;15.30;;;15.00;93.80;;;;;;5080327;28;20401;-82
2021/08/26 00:09:49;;;;;;;24.77;15.13;;;15.00;93.90;;;;;;5091490;28;20374;-82
2021/08/26 00:12:15;;;;;;;23.77;14.87;;;15.10;93.80;;;;;;5091405;28;20409;-82
2021/08/26 00:14:41;;;;;;;24.90;15.40;;;15.20;93.70;;;;;;5075667;28;20462;-82
2021/08/26 00:17:06;;;;;;;23.83;15.75;;;15.10;93.90;;;;;;5087643;28;20390;-82
2021/08/26 00:19:32;;;;;;;26.50;15.50;;;15.10;94.00;;;;;;5091093;28;20406;-80
2021/08/26 00:21:57;;;;;;;26.17;15.83;;;15.10;94.20;;;;;;5081375;28;20556;-81
2021/08/26 00:24:23;;;;;;;27.52;15.85;;;15.00;94.40;;;;;;5091775;28;20769;-81
2021/08/26 00:26:49;;;;;;;25.73;16.35;;;14.90;94.90;;;;;;5093943;28;20378;-81
2021/08/26 00:29:14;;;;;;;27.40;16.57;;;15.00;94.60;;;;;;5093692;28;20454;-82
2021/08/26 00:31:40;;;;;;;27.00;16.20;;;15.00;94.80;;;;;;5095071;28;20435;-81
2021/08/26 00:34:05;;;;;;;26.95;16.00;;;15.10;94.50;;;;;;5085185;28;20389;-80
2021/08/26 00:36:31;;;;;;;28.02;16.23;;;15.00;94.90;;;;;;5094931;28;20411;-81
2021/08/26 00:38:57;;;;;;;24.20;15.47;;;14.90;95.00;;;;;;5094750;28;20389;-81
2021/08/26 00:41:24;;;;;;;23.77;14.53;;;15.10;94.70;;;;;;5093595;28;20398;-82
2021/08/26 00:43:50;;;;;;;25.05;14.88;;;15.00;94.70;;;;;;5094848;28;20378;-82
2021/08/26 00:46:15;;;;;;;27.50;15.10;;;14.90;95.30;;;;;;5095092;28;20378;-81
2021/08/26 00:48:45;;;;;;;24.57;14.77;;;15.00;95.00;;;;;;5093477;28;20466;-82
2021/08/26 00:51:11;;;;;;;22.52;13.43;;;15.00;95.10;;;;;;5094653;28;20417;-82
2021/08/26 00:53:39;;;;;;;23.02;13.55;;;14.90;95.20;;;;;;5094364;28;20522;-82
2021/08/26 00:56:11;;;;;;;20.52;12.57;;;14.90;95.20;;;;;;5094753;28;20411;-82
2021/08/26 00:58:36;;;;;;;19.98;11.70;;;15.10;94.90;;;;;;5076413;28;20408;-82
2021/08/26 01:01:03;;;;;;;23.40;12.83;;;15.00;94.90;;;;;;5094825;28;20382;-83
2021/08/26 01:03:41;;;;;;;20.02;11.25;;;15.00;95.10;;;;;;5094317;28;20862;-82
2021/08/26 01:06:14;;;;;;;20.08;11.80;;;15.00;95.00;;;;;;5094464;28;20391;-82
2021/08/26 01:08:50;;;;;;;20.27;10.55;;;15.00;95.20;;;;;;5094273;28;20406;-84
2021/08/26 01:11:17;;;;;;;17.75;10.82;;;14.90;95.50;;;;;;5094275;28;20423;-83
2021/08/26 01:13:44;;;;;;;20.77;11.63;;;14.90;95.60;;;;;;5076163;28;20786;-83
2021/08/26 01:16:11;;;;;;;16.48;9.95;;;15.00;95.50;;;;;;5094425;28;20871;-83
2021/08/26 01:18:38;;;;;;;18.02;9.77;;;15.00;95.50;;;;;;5094160;28;20423;-84
2021/08/26 01:21:05;;;;;;;15.82;9.82;;;15.00;95.30;;;;;;5075951;28;20386;-83
2021/08/26 01:23:36;;;;;;;12.77;7.38;;;15.00;95.40;;;;;;5093822;28;20389;-82
2021/08/26 01:26:06;;;;;;;9.00;5.40;;;14.90;95.00;;;;;;5076001;28;20743;-83
2021/08/26 01:28:41;;;;;;;6.38;3.72;;;14.90;94.50;;;;;;5083697;28;20402;-85
2021/08/26 01:31:06;;;;;;;5.07;2.65;;;14.80;94.50;;;;;;5093951;28;20789;-83
2021/08/26 01:33:34;;;;;;;5.17;2.17;;;14.70;94.30;;;;;;5092297;28;20405;-83
2021/08/26 01:36:03;;;;;;;6.63;2.45;;;14.60;94.00;;;;;;5093222;28;20370;-84
2021/08/26 01:38:29;;;;;;;6.43;2.38;;;14.60;94.10;;;;;;5093777;28;20481;-86
2021/08/26 01:40:54;;;;;;;6.10;2.03;;;14.60;94.10;;;;;;5092500;28;20477;-84
2021/08/26 01:43:21;;;;;;;10.98;1.90;;;14.60;93.80;;;;;;5093676;28;20393;-83
2021/08/26 01:45:48;;;;;;;7.25;1.95;;;14.50;93.60;;;;;;5093722;28;20384;-83
2021/08/26 01:48:17;;;;;;;5.60;2.40;;;14.60;93.10;;;;;;5092203;28;20406;-83
2021/08/26 01:50:43;;;;;;;5.18;1.80;;;14.50;93.00;;;;;;5093551;28;20418;-83
2021/08/26 01:53:09;;;;;;;4.90;2.03;;;14.50;92.80;;;;;;5093518;28;20383;-84
2021/08/26 01:55:35;;;;;;;5.97;1.97;;;14.60;91.80;;;;;;5093492;28;20382;-84
2021/08/26 01:58:00;;;;;;;10.63;2.03;;;14.70;92.10;;;;;;5092208;28;20440;-83
2021/08/26 02:00:26;;;;;;;4.15;2.10;;;14.50;92.40;;;;;;5093043;28;20404;-84
2021/08/26 02:02:51;;;;;;;5.40;1.70;;;14.60;92.50;;;;;;5093242;28;20473;-84
2021/08/26 02:05:17;;;;;;;7.83;1.83;;;14.80;92.10;;;;;;5091940;28;20465;-84
2021/08/26 02:07:50;;;;;;;7.18;1.80;;;14.90;91.40;;;;;;5091769;28;20398;-83
2021/08/26 02:10:16;;;;;;;4.88;1.90;;;14.90;91.40;;;;;;5091816;28;20464;-84
2021/08/26 02:12:42;;;;;;;7.25;2.50;;;14.90;91.40;;;;;;5092077;28;20848;-82
2021/08/26 02:15:09;;;;;;;12.33;2.90;;;14.80;91.80;;;;;;5091563;28;20481;-84
2021/08/26 02:17:35;;;;;;;7.27;2.23;;;14.60;92.60;;;;;;5091590;28;20386;-84
2021/08/26 02:20:01;;;;;;;7.35;2.50;;;14.60;93.00;;;;;;5091944;28;20432;-83
2021/08/26 02:22:27;;;;;;;6.50;2.38;;;14.70;92.60;;;;;;5092935;28;20508;-84
2021/08/26 02:24:52;;;;;;;6.03;2.00;;;14.70;92.40;;;;;;5092751;28;20461;-84
2021/08/26 02:27:18;;;;;;;7.53;2.70;;;14.60;92.80;;;;;;5092575;28;20412;-84
2021/08/26 02:29:43;;;;;;;10.20;2.40;;;14.70;92.60;;;;;;5092765;28;21003;-84
2021/08/26 02:32:09;;;;;;;7.43;2.03;;;14.80;92.00;;;;;;5092603;28;20927;-84
2021/08/26 02:34:34;;;;;;;6.03;2.40;;;14.80;91.90;;;;;;5092671;28;20370;-84
2021/08/26 02:37:00;;;;;;;7.87;2.10;;;14.80;91.70;;;;;;5092651;28;20409;-84
2021/08/26 02:39:26;;;;;;;8.88;2.33;;;14.80;91.80;;;;;;5092512;28;20382;-83
2021/08/26 02:41:51;;;;;;;4.38;2.10;;;14.90;91.60;;;;;;5092789;28;20461;-82
2021/08/26 02:44:17;;;;;;;9.00;2.83;;;14.60;92.00;;;;;;5092741;28;20465;-83
2021/08/26 02:46:43;;;;;;;8.03;2.67;;;14.60;92.50;;;;;;5092215;28;21113;-84
2021/08/26 02:49:08;;;;;;;6.93;2.40;;;14.70;92.20;;;;;;5092275;28;20437;-83
2021/08/26 02:51:34;;;;;;;6.85;2.15;;;14.70;92.20;;;;;;5091331;28;20394;-83
2021/08/26 02:54:00;;;;;;;10.10;2.78;;;14.80;91.50;;;;;;5092235;28;20431;-83
2021/08/26 02:56:25;;;;;;;6.53;2.00;;;14.80;91.50;;;;;;5092258;28;20386;-83
2021/08/26 02:58:51;;;;;;;7.77;2.77;;;14.90;91.20;;;;;;5091907;28;20850;-83
2021/08/26 03:01:16;;;;;;;10.50;2.97;;;14.70;92.50;;;;;;5092159;28;20764;-83
2021/08/26 03:03:42;;;;;;;10.97;2.40;;;14.60;92.00;;;;;;5090722;28;20393;-83
2021/08/26 03:06:07;;;;;;;5.27;2.40;;;14.70;91.70;;;;;;5092359;28;20467;-83
2021/08/26 03:08:33;;;;;;;8.23;2.13;;;14.70;91.90;;;;;;5092026;28;20409;-83
2021/08/26 03:11:00;;;;;;;9.90;2.60;;;14.80;91.40;;;;;;5090730;28;20796;-83
2021/08/26 03:13:25;;;;;;;10.13;2.33;;;14.90;90.80;;;;;;5090581;28;20924;-83
2021/08/26 03:15:51;;;;;;;8.13;2.20;;;14.80;90.80;;;;;;5091917;28;20386;-83
2021/08/26 03:18:16;;;;;;;8.82;2.90;;;14.50;91.50;;;;;;5090674;28;20897;-83
2021/08/26 03:20:42;;;;;;;11.32;2.90;;;14.60;91.40;;;;;;5091791;28;20378;-83
2021/08/26 03:23:08;;;;;;;13.90;3.47;;;14.60;91.80;;;;;;5092085;28;20457;-83
2021/08/26 03:25:34;;;;;;;10.32;3.22;;;14.50;91.90;;;;;;5091467;28;20410;-81
2021/08/26 03:28:00;;;;;;;9.83;2.57;;;14.50;91.20;;;;;;5090388;28;20837;-83
2021/08/26 03:30:25;;;;;;;8.80;2.73;;;14.30;91.90;;;;;;5090405;28;20763;-84
2021/08/26 03:32:51;;;;;;;7.97;2.70;;;14.30;91.70;;;;;;5091484;28;20417;-85
2021/08/26 03:35:17;;;;;;;13.75;2.90;;;14.30;91.90;;;;;;5091407;28;20383;-81
2021/08/26 03:37:43;;;;;;;9.63;2.58;;;14.30;91.90;;;;;;5091388;28;20878;-83
2021/08/26 03:40:09;;;;;;;14.53;4.43;;;14.30;91.40;;;;;;5091437;28;20381;-84
2021/08/26 03:42:34;;;;;;;8.83;2.90;;;14.10;91.50;;;;;;5090298;28;20716;-83
2021/08/26 03:45:00;;;;;;;13.03;2.70;;;14.20;91.80;;;;;;5091573;28;20408;-84
2021/08/26 03:47:26;;;;;;;12.60;2.88;;;14.30;90.80;;;;;;5091567;28;20431;-84
2021/08/26 03:49:52;;;;;;;11.27;2.50;;;14.30;91.00;;;;;;5091411;28;20425;-84
2021/08/26 03:52:17;;;;;;;12.70;2.90;;;14.30;90.90;;;;;;5091199;28;20400;-82
2021/08/26 03:54:43;;;;;;;12.18;3.17;;;14.30;91.10;;;;;;5091840;28;20378;-84
2021/08/26 03:57:08;;;;;;;10.70;2.73;;;14.20;90.80;;;;;;5091546;28;20782;-84
2021/08/26 03:59:34;;;;;;;13.32;2.75;;;14.10;91.50;;;;;;5095817;28;20378;-84
2021/08/26 04:01:59;;;;;;;11.80;2.65;;;14.20;90.90;;;;;;5095631;28;20414;-83
2021/08/26 04:04:25;;;;;;;13.07;3.00;;;14.10;90.90;;;;;;5094190;28;20734;-85
2021/08/26 04:06:51;;;;;;;10.07;2.83;;;14.10;89.40;;;;;;5090950;28;20384;-84
2021/08/26 04:09:16;;;;;;;12.23;3.00;;;14.00;90.40;;;;;;5082814;28;20406;-85
2021/08/26 04:11:42;;;;;;;11.27;2.58;;;14.00;90.40;;;;;;5095386;28;20476;-84
2021/08/26 04:14:07;;;;;;;13.20;3.00;;;14.10;89.40;;;;;;5089918;28;20378;-85
2021/08/26 04:16:33;;;;;;;13.87;3.10;;;14.00;90.30;;;;;;5095701;28;20397;-84
2021/08/26 04:18:58;;;;;;;12.18;3.20;;;14.00;89.70;;;;;;5095376;28;20735;-84
2021/08/26 04:21:24;;;;;;;8.63;2.83;;;14.00;89.70;;;;;;5095373;28;20401;-84
2021/08/26 04:23:49;;;;;;;8.27;3.10;;;14.00;90.20;;;;;;5095435;28;20409;-84
2021/08/26 04:26:15;;;;;;;13.32;3.42;;;14.10;90.20;;;;;;5093878;28;20390;-84
2021/08/26 04:28:40;;;;;;;13.17;3.83;;;14.20;89.80;;;;;;5094804;28;20470;-83
2021/08/26 04:31:06;;;;;;;15.17;3.83;;;14.30;89.50;;;;;;5095072;28;20491;-84
2021/08/26 04:33:32;;;;;;;11.13;3.40;;;14.10;90.00;;;;;;5095061;28;20417;-84
2021/08/26 04:35:57;;;;;;;13.27;3.70;;;14.10;90.30;;;;;;5094971;28;20409;-84
2021/08/26 04:38:23;;;;;;;13.17;3.63;;;14.00;90.50;;;;;;5095082;28;20382;-83
2021/08/26 04:40:48;;;;;;;16.75;3.90;;;14.10;90.10;;;;;;5095166;28;20390;-84
2021/08/26 04:43:14;;;;;;;21.60;4.80;;;14.20;90.00;;;;;;5094672;28;20851;-84
2021/08/26 04:45:39;;;;;;;15.17;4.47;;;14.10;90.40;;;;;;5094494;28;20382;-83
2021/08/26 04:48:05;;;;;;;10.38;3.70;;;14.20;89.90;;;;;;5093380;28;20504;-84
2021/08/26 04:50:31;;;;;;;16.15;4.00;;;14.20;89.90;;;;;;5094807;28;20918;-83
2021/08/26 04:52:56;;;;;;;15.43;4.60;;;14.10;89.90;;;;;;5094331;28;20370;-84
2021/08/26 04:55:22;;;;;;;18.07;5.43;;;13.90;90.20;;;;;;5094593;28;20416;-84
2021/08/26 04:57:47;;;;;;;20.35;4.28;;;14.00;90.20;;;;;;5095046;28;20747;-84
2021/08/26 05:00:13;;;;;;;19.63;4.30;;;14.10;89.90;;;;;;5093472;28;20390;-83
2021/08/26 05:02:38;;;;;;;17.73;4.73;;;14.10;90.10;;;;;;5093120;28;20386;-84
2021/08/26 05:05:04;;;;;;;20.43;5.37;;;14.10;89.80;;;;;;5094368;28;20477;-84
2021/08/26 05:07:30;;;;;;;18.23;4.22;;;14.00;89.90;;;;;;5088582;28;20817;-84
2021/08/26 05:09:55;;;;;;;18.23;4.97;;;14.10;89.90;;;;;;5093524;28;20394;-84
2021/08/26 05:12:21;;;;;;;16.73;3.80;;;14.10;89.60;;;;;;5094195;28;20371;-84
2021/08/26 05:14:46;;;;;;;16.40;3.88;;;14.10;89.70;;;;;;5094096;28;20857;-84
2021/08/26 05:17:12;;;;;;;13.27;3.23;;;14.10;89.50;;;;;;5094282;28;20385;-84
2021/08/26 05:19:37;;;;;;;15.93;4.07;;;14.10;89.70;;;;;;5093002;28;20393;-83
2021/08/26 05:22:03;;;;;;;14.18;3.95;;;14.00;89.50;;;;;;5094136;28;20863;-84
2021/08/26 05:24:30;;;;;;;21.15;4.18;;;14.00;89.50;;;;;;5094002;28;20382;-84
2021/08/26 05:26:55;;;;;;;21.40;4.33;;;14.00;89.40;;;;;;5092648;28;20410;-84
2021/08/26 05:29:21;;;;;;;14.53;4.40;;;14.10;89.60;;;;;;5093000;28;20483;-84
2021/08/26 05:31:46;;;;;;;20.13;4.07;;;14.10;88.90;;;;;;5093478;28;20413;-84
2021/08/26 05:34:12;;;;;;;14.30;3.78;;;14.00;88.20;;;;;;5093915;28;20370;-84
2021/08/26 05:36:38;;;;;;;15.23;3.97;;;14.00;89.00;;;;;;5094128;28;20374;-83
2021/08/26 05:39:03;;;;;;;19.03;3.63;;;14.10;88.30;;;;;;5093626;28;20477;-83
2021/08/26 05:41:29;;;;;;;15.97;4.07;;;14.20;89.00;;;;;;5091489;28;20760;-83
2021/08/26 05:43:54;;;;;;;20.58;3.20;;;14.20;88.40;;;;;;5093733;28;20509;-86
2021/08/26 05:46:20;;;;;;;18.10;3.20;;;14.10;87.50;;;;;;5090082;28;20386;-84
2021/08/26 05:48:45;;;;;;;13.10;3.20;;;14.20;88.20;;;;;;5093579;28;20404;-83
2021/08/26 05:51:11;;;;;;;12.48;2.60;;;14.10;88.00;;;;;;5093677;28;20414;-84
2021/08/26 05:53:37;;;;;;;18.70;2.97;;;14.10;88.00;;;;;;5084695;28;20380;-84
2021/08/26 05:56:02;;;;;;;13.37;3.40;;;14.10;85.90;;;;;;5093875;28;20854;-84
2021/08/26 05:58:28;;;;;;;12.23;2.28;;;14.20;87.40;;;;;;5083670;28;20485;-83
2021/08/26 06:00:53;;;;;;;11.70;2.53;;;14.10;86.80;;;;;;5093307;28;20846;-84
2021/08/26 06:03:19;;;;;;;14.87;2.30;;;14.30;87.50;;;;;;5093055;28;20882;-83
2021/08/26 06:05:45;;;;;;;7.93;2.00;;;14.30;87.10;;;;;;5093295;28;20378;-84
2021/08/26 06:08:10;;;;;;;16.08;2.45;;;14.20;87.00;;;;;;5093141;28;20406;-84
2021/08/26 06:10:39;;;;;;;11.18;2.42;;;14.30;87.60;;;;;;5093164;28;20382;-84
2021/08/26 06:13:04;;;;;;;9.40;2.60;;;14.30;86.50;;;;;;5093056;28;20378;-84
2021/08/26 06:15:30;;;;;;;11.35;2.55;;;14.30;87.00;;;;;;5079228;28;20756;-84
2021/08/26 06:17:56;;;;;;;9.23;2.30;;;14.40;87.30;;;;;;5089693;28;20390;-83
2021/08/26 06:20:21;;;;;;;15.95;2.88;;;14.40;87.20;;;;;;5080244;28;20382;-84
2021/08/26 06:22:47;;;;;;;13.70;2.40;;;14.30;85.70;;;;;;5091187;28;20400;-85
2021/08/26 06:25:13;;;;;;;7.23;1.87;;;14.10;85.80;;;;;;5090033;28;20883;-83
2021/08/26 06:27:39;;;;;;;10.15;2.20;;;14.10;86.80;;;;;;5091428;28;20394;-83
2021/08/26 06:30:07;;;;;;;13.95;3.03;;;14.00;87.00;;;;;;5090125;28;20958;-83
2021/08/26 06:32:32;;;;;;;16.77;2.70;;;13.90;87.20;;;;;;5091758;28;20393;-84
2021/08/26 06:34:58;;;;;;;8.33;2.07;;;13.90;87.70;;;;;;5083009;28;20386;-83
2021/08/26 06:37:25;;;;;;;10.85;2.67;;;14.00;87.60;;;;;;5091551;28;20492;-81
2021/08/26 06:39:50;;;;;;;20.08;3.78;;;14.10;88.10;;;;;;5091855;28;20385;-83
2021/08/26 06:42:16;;;;;;;10.67;2.53;;;13.90;89.50;;;;;;5091393;28;20427;-82
2021/08/26 06:44:42;;;;;;;15.68;3.60;;;13.90;89.90;;;;;;5091347;28;20378;-83
2021/08/26 06:47:07;;;;;;;17.23;3.10;;;13.90;89.30;;;;;;5091423;28;20807;-84
2021/08/26 06:49:33;;;;;;;12.53;3.03;;;13.90;90.00;;;;;;5091017;28;20406;-83
2021/08/26 06:51:59;;;;;;;16.90;3.53;;;14.00;89.60;;;;;;5090454;28;20858;-83
2021/08/26 06:54:24;;;;;;;11.13;2.72;;;14.10;90.00;;;;;;5091029;28;20854;-84
2021/08/26 06:56:50;;;;;;;14.07;2.60;;;14.10;89.80;;;;;;5090136;28;20388;-84
2021/08/26 06:59:15;;;;;;;10.20;2.80;;;14.10;89.20;;;;;;5090240;28;20502;-84
2021/08/26 07:01:41;;;;;;;15.03;2.77;;;14.20;89.70;;;;;;5091524;28;20382;-83
2021/08/26 07:04:06;;;;;;;14.43;2.87;;;14.20;89.20;;;;;;5089851;28;20382;-83
2021/08/26 07:06:32;;;;;;;14.82;3.17;;;14.00;89.20;;;;;;5090114;28;20405;-83
2021/08/26 07:08:58;;;;;;;13.53;3.17;;;14.00;89.20;;;;;;5086772;28;20457;-84
2021/08/26 07:11:23;;;;;;;12.75;2.95;;;14.10;89.30;;;;;;5087812;28;20789;-83
2021/08/26 07:13:49;;;;;;;13.83;3.43;;;14.20;89.80;;;;;;5073839;28;20469;-84
2021/08/26 07:16:15;;;;;;;18.60;3.10;;;14.30;89.60;;;;;;5090512;28;20413;-84
2021/08/26 07:18:40;;;;;;;14.50;3.70;;;14.20;90.10;;;;;;5088908;28;20439;-85
2021/08/26 07:21:06;;;;;;;13.13;3.95;;;14.30;90.30;;;;;;5077006;28;20477;-84
2021/08/26 07:23:31;;;;;;;17.40;3.43;;;14.30;89.80;;;;;;5091017;28;20394;-83
2021/08/26 07:25:58;;;;;;;10.60;2.93;;;14.40;89.90;;;;;;5088483;28;20401;-85
2021/08/26 07:28:24;;;;;;;16.80;3.50;;;14.40;89.90;;;;;;5067760;28;20407;-84
2021/08/26 07:30:51;;;;;;;11.13;2.97;;;14.40;88.70;;;;;;5068552;28;20405;-83
2021/08/26 07:33:18;;;;;;;14.30;2.90;;;14.40;89.30;;;;;;5089509;28;20414;-84
2021/08/26 07:35:43;;;;;;;16.10;2.97;;;14.40;89.70;;;;;;5091050;28;20410;-83
2021/08/26 07:38:09;;;;;;;10.90;2.80;;;14.30;89.10;;;;;;5091409;28;20826;-83
2021/08/26 07:40:35;;;;;;;16.13;2.50;;;14.30;89.20;;;;;;5091006;28;20417;-84
2021/08/26 07:43:00;;;;;;;15.97;2.67;;;14.30;89.20;;;;;;5090748;28;20462;-84
2021/08/26 07:45:26;;;;;;;12.93;2.90;;;14.30;88.90;;;;;;5090781;28;20958;-84
2021/08/26 07:47:51;;;;;;;15.82;3.78;;;14.20;89.20;;;;;;5091207;28;20410;-83
2021/08/26 07:50:19;;;;;;;11.50;3.23;;;14.20;89.70;;;;;;5086976;28;20890;-83
2021/08/26 07:52:44;;;;;;;13.32;3.15;;;14.20;89.60;;;;;;5091286;28;20473;-84
2021/08/26 07:55:10;;;;;;;13.05;3.15;;;14.20;88.60;;;;;;5088014;28;20839;-83
2021/08/26 07:57:36;;;;;;;11.88;3.15;;;14.30;89.50;;;;;;5083826;28;20870;-84
2021/08/26 08:00:02;;;;;;;13.30;3.90;;;14.30;88.60;;;;;;5078732;28;20397;-85
2021/08/26 08:02:28;;;;;;;12.90;4.25;;;14.30;88.20;;;;;;5079677;28;20893;-83
2021/08/26 08:04:53;;;;;;;10.20;3.20;;;14.40;88.70;;;;;;5089429;28;20390;-84
2021/08/26 08:07:19;;;;;;;14.97;3.60;;;14.60;88.10;;;;;;5090508;28;20751;-83
2021/08/26 08:09:44;;;;;;;12.50;3.30;;;14.60;89.10;;;;;;5090461;28;20474;-83
2021/08/26 08:12:10;;;;;;;10.35;3.10;;;14.50;89.10;;;;;;5090930;28;20393;-83
2021/08/26 08:14:35;;;;;;;7.47;2.83;;;14.60;89.00;;;;;;5089033;28;20398;-83
2021/08/26 08:17:01;;;;;;;10.67;3.40;;;14.50;88.10;;;;;;5072167;28;20440;-83
2021/08/26 08:19:27;;;;;;;10.93;3.15;;;14.60;88.30;;;;;;5072489;28;20865;-85
2021/08/26 08:21:53;;;;;;;12.30;3.67;;;14.60;88.40;;;;;;5090147;28;20386;-87
2021/08/26 08:24:18;;;;;;;13.35;3.47;;;14.50;87.70;;;;;;5089965;28;20890;-84
2021/08/26 08:26:45;;;;;;;10.13;3.53;;;14.50;88.00;;;;;;5090424;28;20742;-84
2021/08/26 08:29:10;;;;;;;11.07;3.90;;;14.70;88.60;;;;;;5105719;28;20897;-84
2021/08/26 08:31:36;;;;;;;15.57;4.90;;;14.70;88.60;;;;;;5089845;28;20386;-84
2021/08/26 08:34:02;;;;;;;13.90;4.10;;;14.80;89.20;;;;;;5089957;28;20856;-85
2021/08/26 08:36:27;;;;;;;16.83;4.53;;;14.80;89.10;;;;;;5072060;28;20727;-83
2021/08/26 08:38:53;;;;;;;8.57;4.77;;;14.70;89.10;;;;;;5090209;28;20503;-83
2021/08/26 08:41:21;;;;;;;16.83;4.80;;;14.70;88.30;;;;;;5090182;28;20431;-83
2021/08/26 08:43:47;;;;;;;15.68;5.45;;;14.70;88.70;;;;;;5090894;28;20465;-84
2021/08/26 08:46:14;;;;;;;14.75;5.35;;;14.70;88.40;;;;;;5090561;28;20374;-84
2021/08/26 08:48:41;;;;;;;17.10;5.45;;;14.70;88.20;;;;;;5093447;28;20420;-83
2021/08/26 08:51:11;;;;;;;13.73;6.10;;;14.90;89.10;;;;;;5093186;28;20873;-83
2021/08/26 08:53:37;;;;;;;17.23;5.88;;;14.80;87.20;;;;;;5072981;28;20413;-83
2021/08/26 08:56:06;;;;;;;17.83;6.20;;;14.90;87.80;;;;;;5093218;28;20607;-83
2021/08/26 08:58:39;;;;;;;13.27;5.07;;;15.00;87.80;;;;;;5093164;28;20858;-83
2021/08/26 09:01:05;;;;;;;20.50;5.55;;;15.00;86.90;;;;;;5093553;28;20389;-83
2021/08/26 09:03:31;;;;;;;16.90;6.13;;;15.00;87.80;;;;;;5093722;28;20462;-83
2021/08/26 09:06:00;;;;;;;16.63;5.40;;;15.00;88.30;;;;;;5093466;28;20798;-83
2021/08/26 09:08:31;;;;;;;13.27;5.10;;;14.90;87.80;;;;;;5093507;28;20405;-82
2021/08/26 09:11:10;;;;;;;13.48;4.90;;;14.90;87.70;;;;;;5093339;28;20390;-83
2021/08/26 09:13:36;;;;;;;15.43;6.20;;;15.00;88.60;;;;;;5093404;28;20473;-83
2021/08/26 09:16:02;;;;;;;20.77;6.10;;;15.00;88.00;;;;;;5093130;28;20820;-83
2021/08/26 09:18:29;;;;;;;18.70;5.82;;;15.00;87.90;;;;;;5093326;28;20366;-83
2021/08/26 09:20:56;;;;;;;14.35;4.10;;;15.10;88.10;;;;;;5093352;28;20371;-82
2021/08/26 09:23:24;;;;;;;14.15;4.20;;;15.20;88.10;;;;;;5092840;28;20469;-83
2021/08/26 09:25:51;;;;;;;15.43;3.58;;;15.30;88.40;;;;;;5093346;28;20784;-84
2021/08/26 09:28:30;;;;;;;13.10;3.60;;;15.40;86.30;;;;;;5093152;28;20441;-84
2021/08/26 09:31:18;;;;;;;12.60;3.30;;;15.40;85.30;;;;;;5093041;28;20420;-83
2021/08/26 09:33:57;;;;;;;15.25;3.92;;;15.40;86.80;;;;;;5093232;28;20390;-84
2021/08/26 09:36:31;;;;;;;12.97;3.53;;;15.40;85.60;;;;;;5092771;28;20397;-88
2021/08/26 09:39:07;;;;;;;17.60;4.40;;;15.40;85.00;;;;;;5093123;28;20451;-83
2021/08/26 09:41:39;;;;;;;14.40;3.73;;;15.40;85.20;;;;;;5102489;28;20486;-83
2021/08/26 09:44:13;;;;;;;9.57;3.67;;;15.40;85.10;;;;;;5108581;28;20743;-84
2021/08/26 09:46:39;;;;;;;14.05;4.68;;;15.40;84.70;;;;;;5074479;28;20386;-82
2021/08/26 09:49:11;;;;;;;16.02;4.90;;;15.60;85.00;;;;;;5092605;28;20402;-83
2021/08/26 09:51:38;;;;;;;14.50;3.80;;;15.60;85.50;;;;;;5093103;28;20405;-83
2021/08/26 09:54:04;;;;;;;12.80;4.10;;;15.70;85.00;;;;;;5092602;28;20389;-83
2021/08/26 09:56:44;;;;;;;12.63;3.90;;;15.90;83.20;;;;;;5073444;28;20770;-83
2021/08/26 09:59:09;;;;;;;13.43;3.63;;;15.90;84.90;;;;;;5092370;28;20375;-84
2021/08/26 10:01:38;;;;;;;17.23;4.60;;;15.90;83.70;;;;;;5108154;28;20473;-83
2021/08/26 10:04:24;;;;;;;13.27;4.20;;;15.90;83.70;;;;;;5092429;28;20459;-83
2021/08/26 10:06:50;;;;;;;16.83;5.25;;;16.00;84.80;;;;;;5092238;28;20418;-82
2021/08/26 10:09:16;;;;;;;14.60;3.95;;;16.30;85.40;;;;;;5091893;28;20441;-83
2021/08/26 10:11:44;;;;;;;16.40;3.92;;;16.30;82.70;;;;;;5092360;28;20879;-83
2021/08/26 10:14:09;;;;;;;12.55;4.30;;;16.30;83.30;;;;;;5092185;28;20398;-83
2021/08/26 10:16:37;;;;;;;16.17;4.83;;;16.10;83.10;;;;;;5092185;28;20414;-84
2021/08/26 10:19:04;;;;;;;11.98;4.05;;;16.20;84.10;;;;;;5092185;28;20386;-83
2021/08/26 10:21:30;;;;;;;18.63;4.80;;;16.20;83.70;;;;;;5092316;28;20374;-83
2021/08/26 10:23:56;;;;;;;11.25;3.90;;;16.10;83.20;;;;;;5091881;28;20389;-83
2021/08/26 10:26:22;;;;;;;16.20;3.80;;;16.20;83.80;;;;;;5092145;28;20370;-83
2021/08/26 10:28:49;;;;;;;16.60;4.20;;;16.30;83.60;;;;;;5092078;28;20421;-83
2021/08/26 10:31:33;;;;;;;16.95;4.82;;;16.30;83.10;;;;;;5091575;28;20937;-83
2021/08/26 10:34:08;;;;;;;14.23;4.23;;;16.20;83.10;;;;;;5073545;28;20390;-82
2021/08/26 10:36:45;;;;;;;13.13;3.70;;;16.10;83.80;;;;;;5073133;28;20386;-83
2021/08/26 10:39:37;;;;;;;15.67;4.07;;;15.90;83.20;;;;;;5073669;28;20909;-83
2021/08/26 10:42:18;;;;;;;11.82;3.45;;;15.90;84.40;;;;;;5073557;28;20426;-83
2021/08/26 10:44:59;;;;;;;15.18;3.60;;;15.80;86.00;;;;;;5091759;28;20382;-83
2021/08/26 10:47:47;;;;;;;17.38;3.33;;;15.70;85.70;;;;;;5091569;28;20613;-82
2021/08/26 10:50:21;;;;;;;14.38;3.40;;;15.80;85.30;;;;;;5091285;28;20715;-83
2021/08/26 10:53:00;;;;;;;13.43;3.85;;;15.80;87.10;;;;;;5091512;28;20405;-82
2021/08/26 10:55:33;;;;;;;12.15;3.40;;;15.90;84.50;;;;;;5091550;28;20378;-82
2021/08/26 10:58:20;;;;;;;14.75;3.10;;;16.00;84.50;;;;;;5091146;28;20428;-83
2021/08/26 11:00:47;;;;;;;11.55;3.72;;;16.10;84.20;;;;;;5073025;28;20740;-83
2021/08/26 11:03:35;;;;;;;17.17;3.08;;;16.20;84.90;;;;;;5091750;28;20800;-82
2021/08/26 11:06:22;;;;;;;15.25;3.17;;;16.30;82.20;;;;;;5091102;28;20427;-81
2021/08/26 11:08:52;;;;;;;12.95;3.38;;;16.30;83.50;;;;;;5072956;28;20770;-83
2021/08/26 11:11:27;;;;;;;11.43;3.75;;;16.50;83.50;;;;;;5073212;28;20405;-83
2021/08/26 11:14:14;;;;;;;14.50;3.85;;;16.60;82.00;;;;;;5090945;28;20382;-84
2021/08/26 11:16:46;;;;;;;12.43;2.95;;;16.60;81.40;;;;;;5091153;28;20772;-82
2021/08/26 11:19:12;;;;;;;12.52;3.00;;;16.80;81.90;;;;;;5086318;28;20481;-81
2021/08/26 11:24:23;;;;;;;14.48;3.15;;;16.80;82.00;;;;;;5091112;28;20385;-83
2021/08/26 11:26:56;;;;;;;16.50;3.50;;;16.80;81.60;;;;;;5070620;28;20728;-82
2021/08/26 11:29:24;;;;;;;11.32;3.50;;;16.80;80.70;;;;;;5086535;28;20406;-83
2021/08/26 11:32:00;;;;;;;13.73;4.17;;;16.70;80.90;;;;;;5090483;28;20490;-83
2021/08/26 11:34:31;;;;;;;12.55;3.45;;;16.80;80.10;;;;;;5090771;28;20392;-83
2021/08/26 11:37:03;;;;;;;17.48;3.10;;;16.90;80.40;;;;;;5089661;28;20728;-82
2021/08/26 11:39:31;;;;;;;12.90;3.37;;;16.90;81.10;;;;;;5090537;28;20476;-82
2021/08/26 11:41:56;;;;;;;12.52;3.25;;;16.90;79.00;;;;;;5090524;28;20377;-82
2021/08/26 11:44:22;;;;;;;11.85;3.80;;;16.90;80.80;;;;;;5087398;28;20401;-83
2021/08/26 11:46:48;;;;;;;14.27;3.40;;;16.80;78.80;;;;;;5077580;28;20414;-82
2021/08/26 11:49:13;;;;;;;17.50;4.57;;;16.90;79.60;;;;;;5090617;28;20416;-83
2021/08/26 11:51:39;;;;;;;14.10;4.23;;;16.80;79.10;;;;;;5090156;28;20814;-83
2021/08/26 11:54:17;;;;;;;13.40;3.50;;;16.90;80.40;;;;;;5090514;28;21088;-83
2021/08/26 11:56:43;;;;;;;12.40;2.90;;;16.90;80.50;;;;;;5080634;28;20401;-83
2021/08/26 11:59:30;;;;;;;17.02;2.97;;;16.90;81.50;;;;;;5090698;28;20477;-83
2021/08/26 12:02:23;;;;;;;13.85;3.47;;;16.80;78.80;;;;;;5090031;28;20874;-84
2021/08/26 12:04:54;;;;;;;8.53;2.57;;;16.70;79.20;;;;;;5074839;28;20386;-83
2021/08/26 12:07:33;;;;;;;10.00;2.88;;;16.80;80.70;;;;;;5083767;28;20402;-83
2021/08/26 12:10:08;;;;;;;12.98;3.67;;;16.90;78.80;;;;;;5085297;28;20882;-83
2021/08/26 12:12:34;;;;;;;12.00;3.58;;;16.80;78.10;;;;;;5105830;28;20496;-82
2021/08/26 12:14:59;;;;;;;14.70;4.03;;;17.20;77.40;;;;;;5090027;28;20519;-80
2021/08/26 12:17:25;;;;;;;14.50;3.63;;;17.20;77.30;;;;;;5071289;28;20394;-78
2021/08/26 12:19:54;;;;;;;12.60;4.00;;;17.20;78.60;;;;;;5093714;28;20727;-78
2021/08/26 12:22:23;;;;;;;12.43;3.70;;;17.40;79.40;;;;;;5091380;28;20386;-78
2021/08/26 12:24:56;;;;;;;11.50;3.35;;;17.60;80.00;;;;;;5094529;28;20899;-78
2021/08/26 12:27:22;;;;;;;12.00;3.05;;;17.70;75.60;;;;;;5090716;28;20455;-79
2021/08/26 12:29:50;;;;;;;12.77;3.10;;;17.50;78.50;;;;;;5089637;28;20413;-78
2021/08/26 12:32:26;;;;;;;11.57;3.17;;;17.60;78.00;;;;;;5092687;28;20389;-77
2021/08/26 12:34:52;;;;;;;11.93;3.08;;;17.60;77.90;;;;;;5094372;28;20397;-80
2021/08/26 12:37:18;;;;;;;19.17;4.03;;;17.60;78.40;;;;;;5084477;28;20440;-77
2021/08/26 12:39:44;;;;;;;13.73;3.07;;;17.50;77.70;;;;;;5094858;28;20386;-77
2021/08/26 12:42:19;;;;;;;15.63;4.33;;;17.60;78.70;;;;;;5094361;28;20477;-82
2021/08/26 12:44:46;;;;;;;17.60;3.22;;;17.70;78.00;;;;;;5076375;28;20394;-79
2021/08/26 12:47:24;;;;;;;21.35;3.45;;;17.50;76.60;;;;;;5094282;28;20378;-84
2021/08/26 12:49:50;;;;;;;10.38;3.10;;;17.80;75.50;;;;;;5072912;28;20401;-83